Aviation Digital Data Service (ADDS)

Output produced by METARs form (2112 UTC 16 February 2019)
found at http://www.aviationweather.gov/metar/data/
 
Forecast for: VLPS (PAKSE INTL , LA)
Text: TAF VLPS 161700Z 1618/1718 18006KT 5000 BR FEW027 SCT100
Forecast period: 1800 UTC 16 February 2019 to 1800 UTC 17 February 2019
Forecast type: FROM: standard forecast or significant change
Winds: from the S (180 degrees) at 7 MPH (6 knots; 3.1 m/s)
Visibility: 3 miles (5 km)
Ceiling: at least 12,000 feet AGL
Clouds: few clouds at 2700 feet AGL
scattered clouds at 10000 feet AGL
Weather: BR  (mist)